createdAt,value
2022-10-04T00:01:58.256Z,99.90
2022-10-04T00:04:44.515Z,99.90
2022-10-04T00:07:11.778Z,99.90
2022-10-04T00:09:48.360Z,99.90
2022-10-04T00:12:26.482Z,99.90
2022-10-04T00:14:58.537Z,99.90
2022-10-04T00:17:29.772Z,99.90
2022-10-04T00:19:57.552Z,99.90
2022-10-04T00:22:33.916Z,99.90
2022-10-04T00:25:17.446Z,99.90
2022-10-04T00:28:26.926Z,99.90
2022-10-04T00:31:15.720Z,99.90
2022-10-04T00:34:16.665Z,99.90
2022-10-04T00:36:54.662Z,99.90
2022-10-04T00:39:32.355Z,99.90
2022-10-04T00:42:27.251Z,99.90
2022-10-04T00:45:06.655Z,99.90
2022-10-04T00:47:48.369Z,99.90
2022-10-04T00:50:26.092Z,99.90
2022-10-04T00:52:57.551Z,99.90
2022-10-04T00:55:37.217Z,99.90
2022-10-04T00:58:12.613Z,99.90
2022-10-04T01:00:41.677Z,99.90
2022-10-04T01:03:18.492Z,99.90
2022-10-04T01:05:51.058Z,99.90
2022-10-04T01:08:25.439Z,99.90
2022-10-04T01:10:58.686Z,99.90
2022-10-04T01:13:42.941Z,99.90
2022-10-04T01:16:17.788Z,99.90
2022-10-04T01:18:46.111Z,99.90
2022-10-04T01:21:19.717Z,99.90
2022-10-04T01:23:52.935Z,99.90
2022-10-04T01:26:41.823Z,99.90
2022-10-04T01:29:26.906Z,99.90
2022-10-04T01:31:57.455Z,99.90
2022-10-04T01:34:27.411Z,99.90
2022-10-04T01:36:59.395Z,99.90
2022-10-04T01:39:28.335Z,99.90
2022-10-04T01:41:55.585Z,99.90
2022-10-04T01:44:37.392Z,99.90
2022-10-04T01:47:14.091Z,99.90
2022-10-04T01:49:44.175Z,99.90
2022-10-04T01:52:19.462Z,99.90
2022-10-04T01:54:51.147Z,99.90
2022-10-04T01:57:23.547Z,99.90
2022-10-04T02:00:02.619Z,99.90
2022-10-04T02:02:53.309Z,99.90
2022-10-04T02:05:33.285Z,99.90
2022-10-04T02:08:10.825Z,99.90
2022-10-04T02:10:43.588Z,99.90
2022-10-04T02:13:15.085Z,99.90
2022-10-04T02:15:42.967Z,99.90
2022-10-04T02:18:17.196Z,99.90
2022-10-04T02:20:47.106Z,99.90
2022-10-04T02:23:18.078Z,99.90
2022-10-04T02:25:45.413Z,99.90
2022-10-04T02:28:14.079Z,99.90
2022-10-04T02:30:44.394Z,99.90
2022-10-04T02:33:11.869Z,99.90
2022-10-04T02:35:45.495Z,99.90
2022-10-04T02:38:25.241Z,99.90
2022-10-04T02:41:09.768Z,99.90
2022-10-04T02:43:47.241Z,99.90
2022-10-04T02:46:22.255Z,99.90
2022-10-04T02:48:55.184Z,99.90
2022-10-04T02:51:34.010Z,99.90
2022-10-04T02:54:03.585Z,99.90
2022-10-04T02:56:32.800Z,99.90
2022-10-04T02:59:06.711Z,99.90
2022-10-04T03:01:56.416Z,99.90
2022-10-04T03:04:27.632Z,99.90
2022-10-04T03:06:56.079Z,99.90
2022-10-04T03:09:29.682Z,99.90
2022-10-04T03:11:57.688Z,99.90
2022-10-04T03:14:28.726Z,99.90
2022-10-04T03:17:00.616Z,99.90
2022-10-04T03:19:30.248Z,99.90
2022-10-04T03:22:01.962Z,99.90
2022-10-04T03:24:33.787Z,99.90
2022-10-04T03:27:05.190Z,99.90
2022-10-04T03:29:34.097Z,99.90
2022-10-04T03:32:03.995Z,99.90
2022-10-04T03:34:38.106Z,99.90
2022-10-04T03:37:13.291Z,99.90
2022-10-04T03:39:47.057Z,99.90
2022-10-04T03:42:25.526Z,99.90
2022-10-04T03:44:56.330Z,99.90
2022-10-04T03:47:34.006Z,99.90
2022-10-04T03:50:24.642Z,99.90
2022-10-04T03:52:58.695Z,99.90
2022-10-04T03:55:33.465Z,99.90
2022-10-04T03:58:02.095Z,99.90
2022-10-04T04:00:29.541Z,99.90
2022-10-04T04:03:00.506Z,99.90
2022-10-04T04:05:53.406Z,99.90
2022-10-04T04:08:33.401Z,99.90
2022-10-04T04:11:04.597Z,99.90
2022-10-04T04:14:02.991Z,99.90
2022-10-04T04:16:30.696Z,99.90
2022-10-04T04:19:04.742Z,99.90
2022-10-04T04:21:32.974Z,99.90
2022-10-04T04:24:05.300Z,99.90
2022-10-04T04:26:43.551Z,99.90
2022-10-04T04:29:47.892Z,99.90
2022-10-04T04:32:21.177Z,99.90
2022-10-04T04:35:07.794Z,99.90
2022-10-04T04:37:36.805Z,99.90
2022-10-04T04:40:37.870Z,99.90
2022-10-04T04:43:05.129Z,99.90
2022-10-04T04:45:33.872Z,99.90
2022-10-04T04:48:03.495Z,99.90
2022-10-04T04:50:38.057Z,99.90
2022-10-04T04:53:18.531Z,99.90
2022-10-04T04:56:03.317Z,99.90
2022-10-04T04:58:38.665Z,99.90
2022-10-04T05:01:15.744Z,99.90
2022-10-04T05:03:43.092Z,99.90
2022-10-04T05:06:26.444Z,99.90
2022-10-04T05:08:54.323Z,99.90
2022-10-04T05:11:25.118Z,99.90
2022-10-04T05:13:55.998Z,99.90
2022-10-04T05:16:36.592Z,99.90
2022-10-04T05:19:08.731Z,99.90
2022-10-04T05:21:38.621Z,99.90
2022-10-04T05:24:19.995Z,99.90
2022-10-04T05:26:51.779Z,99.90
2022-10-04T05:29:22.733Z,99.90
2022-10-04T05:32:13.875Z,99.90
2022-10-04T05:34:45.580Z,99.90
2022-10-04T05:37:49.745Z,99.90
2022-10-04T05:40:44.617Z,99.90
2022-10-04T05:43:45.530Z,99.90
2022-10-04T05:46:18.988Z,99.90
2022-10-04T05:48:49.894Z,99.90
2022-10-04T05:51:23.677Z,99.90
2022-10-04T05:53:52.350Z,99.90
2022-10-04T05:57:04.117Z,99.90
2022-10-04T06:00:07.160Z,99.90
2022-10-04T06:03:08.180Z,99.90
2022-10-04T06:06:00.997Z,99.90
2022-10-04T06:08:44.593Z,99.90
2022-10-04T06:11:17.938Z,99.90
2022-10-04T06:14:00.114Z,99.90
2022-10-04T06:16:39.491Z,99.90
2022-10-04T06:19:46.776Z,99.90
2022-10-04T06:22:18.750Z,99.90
2022-10-04T06:25:02.608Z,99.90
2022-10-04T06:27:41.683Z,99.90
2022-10-04T06:30:17.195Z,99.90
2022-10-04T06:32:55.265Z,99.90
2022-10-04T06:35:35.752Z,99.90
2022-10-04T06:38:02.899Z,99.90
2022-10-04T06:41:00.904Z,99.90
2022-10-04T06:43:41.132Z,99.90
2022-10-04T06:46:22.191Z,99.90
2022-10-04T06:49:07.284Z,99.90
2022-10-04T06:52:22.824Z,99.90
2022-10-04T06:55:13.416Z,99.90
2022-10-04T06:58:00.003Z,99.90
2022-10-04T07:00:32.501Z,99.90
2022-10-04T07:03:09.916Z,99.90
2022-10-04T07:05:50.511Z,99.90
2022-10-04T07:08:40.100Z,99.90
2022-10-04T07:11:13.973Z,99.90
2022-10-04T07:13:44.472Z,99.90
2022-10-04T07:16:17.758Z,99.90
2022-10-04T07:18:57.750Z,99.90
2022-10-04T07:21:35.333Z,99.90
2022-10-04T07:24:03.800Z,99.90
2022-10-04T07:26:46.803Z,99.90
2022-10-04T07:29:22.778Z,99.90
2022-10-04T07:32:12.734Z,99.90
2022-10-04T07:35:06.061Z,99.90
2022-10-04T07:38:00.144Z,99.90
2022-10-04T07:40:36.655Z,99.90
2022-10-04T07:43:10.947Z,99.90
2022-10-04T07:45:42.343Z,99.90
2022-10-04T07:48:19.340Z,99.90
2022-10-04T07:51:14.004Z,99.90
2022-10-04T07:53:53.626Z,99.90
2022-10-04T07:56:43.720Z,99.90
2022-10-04T07:59:20.989Z,99.90
2022-10-04T08:02:01.797Z,99.90
2022-10-04T08:04:49.858Z,99.90
2022-10-04T08:07:36.377Z,99.90
2022-10-04T08:10:35.432Z,99.90
2022-10-04T08:13:22.410Z,99.90
2022-10-04T08:15:52.596Z,99.90
2022-10-04T08:18:22.740Z,99.90
2022-10-04T08:21:07.297Z,99.90
2022-10-04T08:23:43.464Z,99.90
2022-10-04T08:26:55.471Z,99.90
2022-10-04T08:29:43.734Z,99.90
2022-10-04T08:32:32.917Z,99.90
2022-10-04T08:35:28.624Z,99.90
2022-10-04T08:38:17.901Z,99.90
2022-10-04T08:41:06.668Z,99.90
2022-10-04T08:44:11.470Z,99.90
2022-10-04T08:46:58.576Z,99.90
2022-10-04T08:49:55.005Z,99.90
2022-10-04T08:52:57.110Z,99.90
2022-10-04T08:55:34.956Z,99.90
2022-10-04T08:58:46.243Z,99.90
2022-10-04T09:01:44.283Z,99.90
2022-10-04T09:04:50.058Z,99.90
2022-10-04T09:07:36.458Z,99.90
2022-10-04T09:10:34.322Z,99.90
2022-10-04T09:13:31.272Z,99.90
2022-10-04T09:16:23.450Z,99.90
2022-10-04T09:19:06.295Z,99.90
2022-10-04T09:22:04.840Z,99.90
2022-10-04T09:24:53.684Z,99.90
2022-10-04T09:27:50.339Z,99.90
2022-10-04T09:30:22.415Z,99.90
2022-10-04T09:33:10.834Z,99.90
2022-10-04T09:36:12.629Z,99.90
2022-10-04T09:39:29.028Z,99.90
2022-10-04T09:42:13.761Z,99.90
2022-10-04T09:45:06.343Z,99.90
2022-10-04T09:47:41.109Z,99.90
2022-10-04T09:50:18.816Z,99.90
2022-10-04T09:53:13.329Z,99.90
2022-10-04T09:56:10.628Z,99.90
2022-10-04T09:58:58.569Z,99.90
2022-10-04T10:02:04.527Z,99.90
2022-10-04T10:05:00.046Z,99.90
2022-10-04T10:07:51.602Z,99.90
2022-10-04T10:10:57.198Z,99.90
2022-10-04T10:13:43.300Z,99.90
2022-10-04T10:16:42.672Z,99.90
2022-10-04T10:19:14.909Z,99.90
2022-10-04T10:21:48.222Z,99.90
2022-10-04T10:24:58.233Z,99.90
2022-10-04T10:27:35.308Z,99.90
2022-10-04T10:30:31.190Z,99.90
2022-10-04T10:33:06.577Z,99.90
2022-10-04T10:35:58.195Z,99.90
2022-10-04T10:38:45.577Z,99.90
2022-10-04T10:41:38.025Z,99.90
2022-10-04T10:44:26.813Z,99.90
2022-10-04T10:47:18.865Z,99.90
2022-10-04T10:49:58.138Z,99.90
2022-10-04T10:52:38.041Z,99.90
2022-10-04T10:56:08.588Z,99.90
2022-10-04T10:59:17.481Z,99.90
2022-10-04T11:02:18.120Z,99.90
2022-10-04T11:05:04.036Z,99.90
2022-10-04T11:08:00.863Z,99.90
2022-10-04T11:10:52.813Z,99.90
2022-10-04T11:13:48.111Z,99.90
2022-10-04T11:16:48.170Z,99.90
2022-10-04T11:19:40.897Z,99.90
2022-10-04T11:22:44.722Z,99.90
2022-10-04T11:25:41.184Z,99.90
2022-10-04T11:28:29.602Z,99.90
2022-10-04T11:31:07.187Z,99.90
2022-10-04T11:33:59.483Z,99.90
2022-10-04T11:36:50.346Z,99.90
2022-10-04T11:39:26.541Z,99.90
2022-10-04T11:42:19.500Z,99.90
2022-10-04T11:45:08.169Z,99.90
2022-10-04T11:47:59.648Z,99.90
2022-10-04T11:50:32.668Z,99.90
2022-10-04T11:53:26.195Z,99.90
2022-10-04T11:56:19.277Z,99.90
2022-10-04T11:59:03.309Z,99.90
2022-10-04T12:02:17.004Z,99.90
2022-10-04T12:05:01.927Z,99.90
2022-10-04T12:07:35.255Z,99.90
2022-10-04T12:10:39.843Z,99.90
2022-10-04T12:13:26.783Z,99.90
2022-10-04T12:16:15.224Z,99.90
2022-10-04T12:19:20.863Z,99.90
2022-10-04T12:22:05.508Z,99.90
2022-10-04T12:25:08.047Z,99.90
2022-10-04T12:28:11.241Z,99.90
2022-10-04T12:31:07.879Z,99.90
2022-10-04T12:33:44.725Z,99.90
2022-10-04T12:36:26.936Z,99.90
2022-10-04T12:39:06.146Z,99.90
2022-10-04T12:41:43.792Z,99.90
2022-10-04T12:44:23.077Z,99.90
2022-10-04T12:47:24.637Z,99.90
2022-10-04T12:50:04.290Z,99.90
2022-10-04T12:52:51.622Z,99.90
2022-10-04T12:55:43.484Z,99.90
2022-10-04T12:58:26.811Z,99.90
2022-10-04T13:01:05.898Z,99.90
2022-10-04T13:04:19.305Z,99.90
2022-10-04T13:07:30.447Z,99.90
2022-10-04T13:10:23.631Z,99.90
2022-10-04T13:13:18.044Z,99.90
2022-10-04T13:19:07.196Z,99.90
2022-10-04T13:21:36.645Z,99.90
2022-10-04T13:24:07.412Z,99.90
2022-10-04T13:26:52.955Z,99.90
2022-10-04T13:29:28.565Z,99.90
2022-10-04T13:31:58.952Z,99.90
2022-10-04T13:34:38.765Z,99.80
2022-10-04T13:37:35.688Z,99.10
2022-10-04T13:40:32.549Z,98.50
2022-10-04T13:43:14.803Z,98.50
2022-10-04T13:46:03.100Z,98.10
2022-10-04T13:48:41.249Z,97.60
2022-10-04T13:51:08.509Z,97.10
2022-10-04T13:54:06.628Z,96.70
2022-10-04T13:56:39.138Z,96.30
2022-10-04T13:59:35.134Z,96.00
2022-10-04T14:02:36.561Z,95.80
2022-10-04T14:05:24.987Z,95.60
2022-10-04T14:08:23.011Z,95.50
2022-10-04T14:11:13.528Z,95.50
2022-10-04T14:13:49.776Z,95.10
2022-10-04T14:16:38.520Z,94.90
2022-10-04T14:19:06.708Z,94.70
2022-10-04T14:22:16.556Z,94.90
2022-10-04T14:24:46.864Z,95.10
2022-10-04T14:27:28.846Z,94.60
2022-10-04T14:30:23.548Z,94.20
2022-10-04T14:32:56.906Z,94.50
2022-10-04T14:35:26.465Z,94.20
2022-10-04T14:38:24.504Z,94.10
2022-10-04T14:41:29.961Z,94.10
2022-10-04T14:44:12.150Z,94.20
2022-10-04T14:47:25.900Z,94.10
2022-10-04T14:50:19.458Z,93.90
2022-10-04T14:53:10.426Z,93.90
2022-10-04T14:56:09.175Z,94.10
2022-10-04T14:59:07.318Z,93.90
2022-10-04T15:01:38.921Z,94.10
2022-10-04T15:04:30.833Z,94.40
2022-10-04T15:07:46.740Z,94.70
2022-10-04T15:10:21.992Z,95.00
2022-10-04T15:13:16.840Z,95.10
2022-10-04T15:15:58.874Z,95.40
2022-10-04T15:18:44.858Z,95.50
2022-10-04T15:21:45.416Z,95.60
2022-10-04T15:24:18.463Z,95.80
2022-10-04T15:27:19.775Z,96.00
2022-10-04T15:30:34.129Z,95.90
2022-10-04T15:33:26.824Z,96.00
2022-10-04T15:36:37.981Z,96.10
2022-10-04T15:39:29.884Z,96.40
2022-10-04T15:42:24.974Z,96.30
2022-10-04T15:45:12.446Z,96.20
2022-10-04T15:48:13.644Z,96.30
2022-10-04T15:51:02.767Z,96.40
2022-10-04T15:53:45.072Z,96.40
2022-10-04T15:56:32.338Z,96.60
2022-10-04T15:59:37.031Z,96.80
2022-10-04T16:02:34.865Z,97.00
2022-10-04T16:05:14.957Z,97.30
2022-10-04T16:08:13.742Z,97.40
2022-10-04T16:11:03.335Z,97.60
2022-10-04T16:13:51.856Z,97.70
2022-10-04T16:16:26.274Z,98.30
2022-10-04T16:19:30.234Z,98.10
2022-10-04T16:22:15.025Z,98.30
2022-10-04T16:24:57.612Z,98.30
2022-10-04T16:27:59.308Z,98.50
2022-10-04T16:30:29.674Z,98.80
2022-10-04T16:32:56.836Z,99.00
2022-10-04T16:35:37.229Z,99.20
2022-10-04T16:38:22.117Z,99.30
2022-10-04T16:40:52.099Z,99.50
2022-10-04T16:43:19.351Z,99.70
2022-10-04T16:45:58.666Z,99.90
2022-10-04T16:48:55.990Z,99.90
2022-10-04T16:51:54.884Z,99.90
2022-10-04T16:54:34.216Z,99.90
2022-10-04T16:57:10.862Z,99.90
2022-10-04T16:59:38.615Z,99.90
2022-10-04T17:02:15.546Z,99.90
2022-10-04T17:05:34.002Z,99.90
2022-10-04T17:08:16.347Z,99.90
2022-10-04T17:11:13.182Z,99.90
2022-10-04T17:14:04.920Z,99.90
2022-10-04T17:16:40.222Z,99.90
2022-10-04T17:19:30.786Z,99.90
2022-10-04T17:22:14.746Z,99.90
2022-10-04T17:24:56.604Z,99.90
2022-10-04T17:27:44.989Z,99.90
2022-10-04T17:30:20.016Z,99.90
2022-10-04T17:32:54.171Z,99.90
2022-10-04T17:36:03.616Z,99.90
2022-10-04T17:38:33.960Z,99.90
2022-10-04T17:41:19.251Z,99.90
2022-10-04T17:43:46.433Z,99.90
2022-10-04T17:46:39.653Z,99.90
2022-10-04T17:49:44.492Z,99.90
2022-10-04T17:52:52.560Z,99.90
2022-10-04T17:55:44.017Z,99.90
2022-10-04T17:58:19.710Z,99.90
2022-10-04T18:01:09.914Z,99.90
2022-10-04T18:03:40.066Z,99.90
2022-10-04T18:06:31.611Z,99.90
2022-10-04T18:09:22.305Z,99.90
2022-10-04T18:11:55.581Z,99.90
2022-10-04T18:14:46.024Z,99.90
2022-10-04T18:17:48.085Z,99.90
2022-10-04T18:20:27.970Z,99.90
2022-10-04T18:23:39.546Z,99.90
2022-10-04T18:26:17.598Z,99.90
2022-10-04T18:28:47.537Z,99.90
2022-10-04T18:31:29.874Z,99.90
2022-10-04T18:34:07.588Z,99.90
2022-10-04T18:37:15.461Z,99.90
2022-10-04T18:39:53.134Z,99.90
2022-10-04T18:42:32.134Z,99.90
2022-10-04T18:45:01.841Z,99.90
2022-10-04T18:47:39.472Z,99.90
2022-10-04T18:50:36.061Z,99.90
2022-10-04T18:53:23.597Z,99.90
2022-10-04T18:56:04.487Z,99.90
2022-10-04T18:59:22.605Z,99.90
2022-10-04T19:02:21.516Z,99.90
2022-10-04T19:05:10.376Z,99.90
2022-10-04T19:08:03.320Z,99.90
2022-10-04T19:10:38.819Z,99.90
2022-10-04T19:13:25.010Z,99.90
2022-10-04T19:16:12.604Z,99.90
2022-10-04T19:18:57.241Z,99.90
2022-10-04T19:21:43.542Z,99.90
2022-10-04T19:24:40.589Z,99.90
2022-10-04T19:27:27.082Z,99.90
2022-10-04T19:30:02.198Z,99.90
2022-10-04T19:33:01.453Z,99.90
2022-10-04T19:35:34.990Z,99.90
2022-10-04T19:38:08.328Z,99.90
2022-10-04T19:40:44.288Z,99.90
2022-10-04T19:43:18.060Z,99.90
2022-10-04T19:46:13.852Z,99.90
2022-10-04T19:48:49.865Z,99.90
2022-10-04T19:51:55.425Z,99.90
2022-10-04T19:54:34.064Z,99.90
2022-10-04T19:57:04.837Z,99.90
2022-10-04T19:59:42.444Z,99.90
2022-10-04T20:02:11.205Z,99.90
2022-10-04T20:04:38.988Z,99.90
2022-10-04T20:07:17.790Z,99.90
2022-10-04T20:09:47.980Z,99.90
2022-10-04T20:12:35.662Z,99.90
2022-10-04T20:15:14.717Z,99.90
2022-10-04T20:17:43.919Z,99.90
2022-10-04T20:20:34.167Z,99.90
2022-10-04T20:23:01.397Z,99.90
2022-10-04T20:25:43.762Z,99.90
2022-10-04T20:28:39.971Z,99.90
2022-10-04T20:31:11.730Z,99.90
2022-10-04T20:33:47.016Z,99.90
2022-10-04T20:36:20.202Z,99.90
2022-10-04T20:38:48.741Z,99.90
2022-10-04T20:41:28.375Z,99.90
2022-10-04T20:44:02.146Z,99.90
2022-10-04T20:46:38.677Z,99.90
2022-10-04T20:49:16.083Z,99.90
2022-10-04T20:51:48.228Z,99.90
2022-10-04T20:54:20.134Z,99.90
2022-10-04T20:56:51.521Z,99.90
2022-10-04T20:59:22.264Z,99.90
2022-10-04T21:02:09.264Z,99.90
2022-10-04T21:04:44.140Z,99.90
2022-10-04T21:07:16.990Z,99.90
2022-10-04T21:09:44.282Z,99.90
2022-10-04T21:12:50.057Z,99.90
2022-10-04T21:15:17.198Z,99.90
2022-10-04T21:18:03.594Z,99.90
2022-10-04T21:20:50.935Z,99.90
2022-10-04T21:23:30.249Z,99.90
2022-10-04T21:26:17.860Z,99.90
2022-10-04T21:28:45.444Z,99.90
2022-10-04T21:31:12.625Z,99.90
2022-10-04T21:33:39.816Z,99.90
2022-10-04T21:36:07.366Z,99.90
2022-10-04T21:38:34.864Z,99.90
2022-10-04T21:41:02.124Z,99.90
2022-10-04T21:43:29.384Z,99.90
2022-10-04T21:45:56.742Z,99.90
2022-10-04T21:48:24.882Z,99.90
2022-10-04T21:50:54.795Z,99.90
2022-10-04T21:53:22.582Z,99.90
2022-10-04T21:55:50.192Z,99.90
2022-10-04T21:58:17.551Z,99.90
2022-10-04T22:00:44.861Z,99.90
2022-10-04T22:03:12.107Z,99.90
2022-10-04T22:05:39.323Z,99.90
2022-10-04T22:08:06.551Z,99.90
2022-10-04T22:10:34.236Z,99.90
2022-10-04T22:13:01.560Z,99.90
2022-10-04T22:15:33.146Z,99.90
2022-10-04T22:18:00.555Z,99.90
2022-10-04T22:20:27.852Z,99.90
2022-10-04T22:22:58.541Z,99.90
2022-10-04T22:25:27.205Z,99.90
2022-10-04T22:27:54.767Z,99.90
2022-10-04T22:30:28.410Z,99.90
2022-10-04T22:33:00.539Z,99.90
2022-10-04T22:35:31.711Z,99.90
2022-10-04T22:37:59.937Z,99.90
2022-10-04T22:40:28.819Z,99.90
2022-10-04T22:42:58.997Z,99.90
2022-10-04T22:45:33.240Z,99.90
2022-10-04T22:48:07.578Z,99.90
2022-10-04T22:50:37.308Z,99.90
2022-10-04T22:53:12.655Z,99.90
2022-10-04T22:55:41.227Z,99.90
2022-10-04T22:58:13.732Z,99.90
2022-10-04T23:00:42.027Z,99.90
2022-10-04T23:03:21.215Z,99.90
2022-10-04T23:05:48.544Z,99.90
2022-10-04T23:08:17.782Z,99.90
2022-10-04T23:10:45.499Z,99.90
2022-10-04T23:13:12.760Z,99.90
2022-10-04T23:15:40.138Z,99.90
2022-10-04T23:18:17.899Z,99.90
2022-10-04T23:20:51.521Z,99.90
2022-10-04T23:23:21.578Z,99.90
2022-10-04T23:25:49.848Z,99.90
2022-10-04T23:28:19.042Z,99.90
2022-10-04T23:30:55.564Z,99.90
2022-10-04T23:33:23.926Z,99.90
2022-10-04T23:35:51.242Z,99.90
2022-10-04T23:38:22.644Z,99.90
2022-10-04T23:40:49.803Z,99.90
2022-10-04T23:43:25.600Z,99.90
2022-10-04T23:45:55.325Z,99.90
2022-10-04T23:48:26.136Z,99.90
2022-10-04T23:50:55.993Z,99.90
2022-10-04T23:53:26.901Z,99.90
2022-10-04T23:56:01.384Z,99.90
2022-10-04T23:58:38.361Z,99.90
